createdAt,value
2023-03-03T00:03:35.349Z,20.40
2023-03-03T00:08:41.536Z,18.00
2023-03-03T00:13:50.606Z,21.20
2023-03-03T00:18:55.377Z,19.13
2023-03-03T00:24:19.470Z,20.57
2023-03-03T00:29:32.161Z,20.00
2023-03-03T00:34:37.990Z,18.30
2023-03-03T00:39:42.760Z,21.43
2023-03-03T00:44:47.528Z,19.23
2023-03-03T00:49:51.844Z,21.17
2023-03-03T00:54:57.642Z,18.90
2023-03-03T01:00:01.446Z,20.07
2023-03-03T01:05:07.561Z,18.23
2023-03-03T01:10:13.541Z,17.20
2023-03-03T01:15:22.229Z,18.70
2023-03-03T01:20:25.613Z,18.63
2023-03-03T01:25:30.638Z,20.13
2023-03-03T01:30:34.008Z,19.13
2023-03-03T01:35:37.699Z,21.60
2023-03-03T01:40:42.852Z,20.43
2023-03-03T01:46:36.927Z,22.13
2023-03-03T01:51:46.532Z,18.40
2023-03-03T01:56:54.388Z,20.40
2023-03-03T02:01:57.918Z,20.57
2023-03-03T02:07:07.057Z,18.77
2023-03-03T02:12:18.330Z,19.90
2023-03-03T02:17:21.699Z,17.77
2023-03-03T02:22:32.628Z,17.73
2023-03-03T02:27:38.537Z,19.70
2023-03-03T02:32:41.915Z,19.07
2023-03-03T02:37:45.302Z,18.67
2023-03-03T02:42:51.745Z,19.63
2023-03-03T02:47:54.999Z,18.53
2023-03-03T02:52:58.276Z,18.50
2023-03-03T02:58:03.009Z,19.53
2023-03-03T03:03:06.373Z,21.63
2023-03-03T03:08:09.634Z,19.57
2023-03-03T03:13:14.409Z,20.73
2023-03-03T03:18:17.930Z,20.17
2023-03-03T03:23:22.049Z,21.60
2023-03-03T03:28:26.791Z,20.20
2023-03-03T03:33:30.113Z,22.10
2023-03-03T03:38:36.765Z,20.83
2023-03-03T03:43:41.611Z,23.03
2023-03-03T03:48:45.673Z,20.23
2023-03-03T03:53:49.004Z,21.50
2023-03-03T03:58:53.743Z,22.33
2023-03-03T04:03:57.085Z,21.07
2023-03-03T04:09:00.502Z,21.53
2023-03-03T04:14:06.455Z,21.87
2023-03-03T04:19:09.720Z,19.43
2023-03-03T04:24:13.140Z,22.23
2023-03-03T04:29:17.919Z,22.37
2023-03-03T04:34:21.250Z,23.20
2023-03-03T04:39:24.662Z,20.07
2023-03-03T04:44:29.306Z,20.97
2023-03-03T04:49:33.598Z,19.30
2023-03-03T04:54:36.908Z,19.60
2023-03-03T04:59:41.795Z,20.30
2023-03-03T05:04:45.315Z,21.50
2023-03-03T05:09:48.611Z,20.77
2023-03-03T05:14:53.253Z,21.10
2023-03-03T05:19:57.502Z,18.63
2023-03-03T05:25:00.766Z,20.80
2023-03-03T05:30:08.670Z,18.47
2023-03-03T05:35:13.134Z,19.43
2023-03-03T05:40:16.719Z,19.57
2023-03-03T05:45:23.165Z,21.20
2023-03-03T05:50:27.421Z,19.60
2023-03-03T05:55:30.756Z,20.73
2023-03-03T06:00:35.668Z,21.53
2023-03-03T06:05:38.972Z,19.87
2023-03-03T06:10:42.455Z,19.33
2023-03-03T06:15:47.300Z,20.53
2023-03-03T06:20:54.035Z,19.20
2023-03-03T06:25:57.440Z,20.13
2023-03-03T06:31:02.167Z,20.50
2023-03-03T06:36:06.386Z,19.77
2023-03-03T06:41:09.768Z,21.00
2023-03-03T06:46:23.242Z,21.93
2023-03-03T06:51:32.380Z,20.77
2023-03-03T06:56:50.660Z,20.83
2023-03-03T07:01:55.547Z,20.30
2023-03-03T07:07:00.332Z,19.47
2023-03-03T07:12:08.341Z,24.03
2023-03-03T07:17:17.378Z,19.97
2023-03-03T07:22:24.830Z,20.57
2023-03-03T07:27:30.290Z,20.07
2023-03-03T07:32:43.173Z,20.90
2023-03-03T07:37:46.696Z,20.33
2023-03-03T07:42:50.845Z,21.17
2023-03-03T07:48:09.511Z,19.67
2023-03-03T07:53:28.040Z,19.37
2023-03-03T07:58:38.840Z,18.17
2023-03-03T08:03:51.286Z,20.47
2023-03-03T08:08:54.554Z,19.83
2023-03-03T08:13:58.193Z,19.00
2023-03-03T08:19:04.676Z,19.75
2023-03-03T08:24:13.836Z,21.67
2023-03-03T08:29:17.097Z,19.75
2023-03-03T08:34:22.772Z,18.08
2023-03-03T08:39:26.176Z,20.25
2023-03-03T08:44:29.522Z,18.85
2023-03-03T08:49:35.105Z,18.38
2023-03-03T08:54:38.677Z,19.95
2023-03-03T08:59:43.623Z,18.92
2023-03-03T09:04:48.424Z,19.77
2023-03-03T09:09:53.059Z,19.55
2023-03-03T09:14:59.695Z,19.80
2023-03-03T09:20:24.209Z,17.23
2023-03-03T09:25:37.145Z,16.83
2023-03-03T09:30:44.312Z,19.20
2023-03-03T09:35:54.802Z,17.95
2023-03-03T09:41:31.655Z,19.25
2023-03-03T09:46:46.925Z,17.40
2023-03-03T09:52:08.617Z,17.80
2023-03-03T09:57:20.591Z,16.30
2023-03-03T10:02:44.327Z,17.50
2023-03-03T10:08:01.945Z,17.17
2023-03-03T10:13:18.824Z,16.67
2023-03-03T10:18:33.868Z,16.52
2023-03-03T10:23:53.158Z,17.08
2023-03-03T10:29:26.652Z,16.58
2023-03-03T10:34:54.584Z,17.23
2023-03-03T10:40:16.418Z,16.80
2023-03-03T10:45:46.784Z,16.15
2023-03-03T10:50:58.054Z,17.67
2023-03-03T10:56:26.518Z,17.15
2023-03-03T11:01:47.145Z,17.85
2023-03-03T11:06:59.909Z,16.30
2023-03-03T11:12:21.482Z,18.48
2023-03-03T11:17:37.319Z,16.83
2023-03-03T11:22:50.336Z,17.83
2023-03-03T11:28:24.782Z,18.73
2023-03-03T11:33:37.673Z,18.92
2023-03-03T11:38:50.071Z,17.98
2023-03-03T11:44:01.804Z,18.33
2023-03-03T11:49:09.428Z,18.33
2023-03-03T11:54:20.935Z,17.52
2023-03-03T11:59:55.674Z,17.50
2023-03-03T12:05:06.067Z,18.58
2023-03-03T12:10:19.207Z,17.88
2023-03-03T12:15:34.590Z,17.33
2023-03-03T12:20:47.576Z,18.98
2023-03-03T12:25:58.563Z,17.85
2023-03-03T12:31:22.871Z,17.92
2023-03-03T12:36:53.064Z,19.10
2023-03-03T12:42:07.047Z,18.83
2023-03-03T12:47:23.240Z,17.65
2023-03-03T12:52:34.562Z,17.17
2023-03-03T12:57:46.807Z,17.13
2023-03-03T13:03:03.378Z,18.08
2023-03-03T13:08:34.699Z,17.63
2023-03-03T13:13:45.627Z,17.35
2023-03-03T13:19:00.721Z,17.20
2023-03-03T13:24:12.304Z,16.80
2023-03-03T13:29:22.299Z,16.40
2023-03-03T13:34:38.651Z,17.05
2023-03-03T13:39:54.830Z,16.02
2023-03-03T13:44:58.967Z,17.23
2023-03-03T13:50:11.604Z,16.65
2023-03-03T13:55:28.397Z,15.02
2023-03-03T14:00:45.605Z,15.40
2023-03-03T14:05:51.604Z,15.77
2023-03-03T14:11:09.480Z,15.88
2023-03-03T14:16:20.103Z,16.33
2023-03-03T14:21:31.031Z,15.38
2023-03-03T14:26:47.765Z,15.30
2023-03-03T14:31:52.136Z,15.32
2023-03-03T14:37:13.083Z,15.95
2023-03-03T14:42:32.415Z,18.00
2023-03-03T14:47:40.508Z,17.02
2023-03-03T14:52:45.236Z,16.33
2023-03-03T14:57:48.850Z,16.73
2023-03-03T15:03:04.734Z,17.17
2023-03-03T15:08:20.766Z,16.40
2023-03-03T15:13:34.087Z,17.25
2023-03-03T15:18:57.498Z,16.63
2023-03-03T15:24:06.759Z,16.00
2023-03-03T15:29:22.465Z,16.15
2023-03-03T15:34:34.830Z,16.17
2023-03-03T15:39:49.113Z,14.25
2023-03-03T15:45:01.244Z,15.27
2023-03-03T15:50:27.176Z,14.77
2023-03-03T15:55:59.611Z,15.85
2023-03-03T16:01:11.455Z,15.20
2023-03-03T16:06:20.202Z,14.52
2023-03-03T16:11:33.005Z,14.40
2023-03-03T16:16:44.669Z,14.15
2023-03-03T16:22:18.673Z,13.93
2023-03-03T16:27:31.533Z,15.15
2023-03-03T16:32:41.684Z,14.77
2023-03-03T16:37:59.775Z,14.40
2023-03-03T16:43:14.085Z,14.38
2023-03-03T16:48:38.186Z,15.68
2023-03-03T16:53:55.328Z,15.13
2023-03-03T16:59:30.618Z,13.23
2023-03-03T17:04:41.289Z,12.73
2023-03-03T17:10:04.570Z,12.70
2023-03-03T17:15:30.169Z,12.63
2023-03-03T17:20:41.110Z,12.75
2023-03-03T17:25:55.201Z,12.48
2023-03-03T17:31:07.512Z,12.48
2023-03-03T17:36:29.574Z,12.52
2023-03-03T17:41:42.893Z,10.98
2023-03-03T17:46:51.773Z,12.27
2023-03-03T17:52:28.653Z,11.97
2023-03-03T17:57:48.232Z,12.97
2023-03-03T18:03:34.163Z,10.60
2023-03-03T18:08:50.522Z,12.27
2023-03-03T18:14:28.554Z,12.67
2023-03-03T18:20:01.372Z,12.93
2023-03-03T18:25:12.063Z,12.00
2023-03-03T18:30:35.384Z,13.93
2023-03-03T18:35:40.940Z,14.43
2023-03-03T18:40:55.218Z,14.80
2023-03-03T18:45:58.633Z,14.57
2023-03-03T18:51:23.740Z,13.57
2023-03-03T18:56:45.366Z,14.60
2023-03-03T19:01:51.904Z,14.33
2023-03-03T19:07:26.607Z,13.17
2023-03-03T19:12:51.890Z,14.37
2023-03-03T19:17:57.384Z,13.50
2023-03-03T19:23:06.110Z,14.50
2023-03-03T19:28:38.011Z,14.47
2023-03-03T19:33:50.937Z,13.97
2023-03-03T19:39:15.852Z,12.97
2023-03-03T19:44:49.945Z,14.83
2023-03-03T19:50:06.746Z,14.47
2023-03-03T19:55:35.954Z,14.07
2023-03-03T20:00:44.061Z,14.33
2023-03-03T20:05:53.503Z,14.57
2023-03-03T20:11:01.547Z,15.00
2023-03-03T20:16:21.947Z,16.20
2023-03-03T20:21:33.526Z,19.37
2023-03-03T20:26:46.153Z,18.40
2023-03-03T20:32:00.336Z,17.00
2023-03-03T20:37:10.269Z,17.50
2023-03-03T20:42:27.480Z,17.77
2023-03-03T20:47:45.068Z,18.97
2023-03-03T20:53:07.848Z,19.47
2023-03-03T20:58:28.095Z,19.10
2023-03-03T21:03:45.195Z,18.03
2023-03-03T21:08:59.568Z,20.20
2023-03-03T21:14:17.835Z,19.67
2023-03-03T21:19:29.807Z,19.10
2023-03-03T21:24:57.354Z,20.37
2023-03-03T21:30:16.386Z,19.37
2023-03-03T21:35:26.091Z,19.30
2023-03-03T21:41:14.065Z,21.17
2023-03-03T21:46:28.389Z,18.80
2023-03-03T21:51:39.585Z,20.30
2023-03-03T21:56:44.871Z,20.47
2023-03-03T22:01:49.265Z,18.73
2023-03-03T22:06:59.746Z,19.53
2023-03-03T22:12:07.775Z,19.00
2023-03-03T22:17:11.459Z,19.67
2023-03-03T22:22:14.811Z,17.13
2023-03-03T22:27:20.849Z,20.33
2023-03-03T22:32:24.198Z,19.90
2023-03-03T22:37:27.562Z,18.43
2023-03-03T22:42:32.195Z,21.87
2023-03-03T22:47:35.543Z,20.93
2023-03-03T22:52:38.891Z,19.73
2023-03-03T22:57:43.587Z,19.40
2023-03-03T23:02:47.033Z,21.77
2023-03-03T23:07:50.486Z,17.73
2023-03-03T23:12:55.272Z,20.50
2023-03-03T23:17:58.666Z,19.87
2023-03-03T23:23:02.191Z,20.47
2023-03-03T23:28:07.652Z,19.37
2023-03-03T23:33:10.930Z,20.07
2023-03-03T23:38:17.798Z,21.20
2023-03-03T23:43:23.471Z,20.53
2023-03-03T23:48:26.803Z,19.80
2023-03-03T23:53:30.094Z,18.63
2023-03-03T23:58:34.872Z,18.93
